createdAt,value
2019-03-31T00:01:47.007Z,44.50
2019-03-31T00:04:17.364Z,43.90
2019-03-31T00:06:48.628Z,43.50
2019-03-31T00:09:19.417Z,44.00
2019-03-31T00:11:49.817Z,44.10
2019-03-31T00:14:20.187Z,44.30
2019-03-31T00:16:52.429Z,44.30
2019-03-31T00:19:22.923Z,44.50
2019-03-31T00:21:53.330Z,44.50
2019-03-31T00:24:24.770Z,44.50
2019-03-31T00:26:55.529Z,44.60
2019-03-31T00:29:25.936Z,44.70
2019-03-31T00:31:56.319Z,44.70
2019-03-31T00:34:27.180Z,44.90
2019-03-31T00:36:57.568Z,44.90
2019-03-31T00:39:27.960Z,45.00
2019-03-31T00:41:58.710Z,45.10
2019-03-31T00:44:29.049Z,45.20
2019-03-31T00:47:02.011Z,45.20
2019-03-31T00:49:31.442Z,45.30
2019-03-31T00:52:02.580Z,45.20
2019-03-31T00:54:33.419Z,45.30
2019-03-31T00:57:04.234Z,45.30
2019-03-31T00:59:34.562Z,45.30
2019-03-31T01:02:10.401Z,45.40
2019-03-31T01:04:40.743Z,45.40
2019-03-31T01:07:11.215Z,45.50
2019-03-31T01:09:41.641Z,45.40
2019-03-31T01:12:12.597Z,45.40
2019-03-31T01:14:43.330Z,45.50
2019-03-31T01:17:18.428Z,45.50
2019-03-31T01:19:47.491Z,45.60
2019-03-31T01:22:17.892Z,45.60
2019-03-31T01:24:48.236Z,45.90
2019-03-31T01:27:19.989Z,45.60
2019-03-31T01:29:50.699Z,46.30
2019-03-31T01:32:21.082Z,45.70
2019-03-31T01:34:51.408Z,45.70
2019-03-31T01:37:22.237Z,45.60
2019-03-31T01:39:52.576Z,45.60
2019-03-31T01:42:23.425Z,45.70
2019-03-31T01:44:54.335Z,45.70
2019-03-31T01:47:25.188Z,45.80
2019-03-31T01:49:55.890Z,45.90
2019-03-31T01:52:27.117Z,45.90
2019-03-31T01:54:57.502Z,46.00
2019-03-31T01:57:27.967Z,46.00
2019-03-31T01:59:58.824Z,46.10
2019-03-31T02:02:30.253Z,46.10
2019-03-31T02:05:01.086Z,46.20
2019-03-31T02:07:31.469Z,46.10
2019-03-31T02:10:01.869Z,46.20
2019-03-31T02:12:32.632Z,46.30
2019-03-31T02:15:05.395Z,46.30
2019-03-31T02:17:36.237Z,46.40
2019-03-31T02:20:07.603Z,46.70
2019-03-31T02:22:37.946Z,46.50
2019-03-31T02:25:09.490Z,46.50
2019-03-31T02:27:40.200Z,46.50
2019-03-31T02:30:11.048Z,46.50
2019-03-31T02:32:41.809Z,46.50
2019-03-31T02:35:13.200Z,46.60
2019-03-31T02:37:43.963Z,46.60
2019-03-31T02:40:14.724Z,46.60
2019-03-31T02:42:45.052Z,46.70
2019-03-31T02:45:16.402Z,46.70
2019-03-31T02:47:47.136Z,46.80
2019-03-31T02:50:34.706Z,46.80
2019-03-31T02:53:05.113Z,46.80
2019-03-31T02:55:35.419Z,46.80
2019-03-31T02:58:05.833Z,46.90
2019-03-31T03:00:36.895Z,47.00
2019-03-31T03:03:07.239Z,47.10
2019-03-31T03:05:38.156Z,47.10
2019-03-31T03:08:08.489Z,47.10
2019-03-31T03:10:39.277Z,47.20
2019-03-31T03:13:10.407Z,47.10
2019-03-31T03:16:15.310Z,47.20
2019-03-31T03:18:46.477Z,47.20
2019-03-31T03:21:17.225Z,47.20
2019-03-31T03:23:48.048Z,47.30
2019-03-31T03:26:18.773Z,47.40
2019-03-31T03:28:49.128Z,47.50
2019-03-31T03:31:20.797Z,47.70
2019-03-31T03:33:51.995Z,47.70
2019-03-31T03:36:22.364Z,48.00
2019-03-31T03:38:52.704Z,48.00
2019-03-31T03:41:23.470Z,48.10
2019-03-31T03:43:57.978Z,48.30
2019-03-31T03:46:27.395Z,48.30
2019-03-31T03:48:57.788Z,48.50
2019-03-31T03:51:29.570Z,48.50
2019-03-31T03:54:00.501Z,48.70
2019-03-31T03:56:30.872Z,48.80
2019-03-31T03:59:01.925Z,49.00
2019-03-31T04:01:33.324Z,49.00
2019-03-31T04:04:03.680Z,49.20
2019-03-31T04:06:34.450Z,49.20
2019-03-31T04:09:06.615Z,49.30
2019-03-31T04:11:37.829Z,49.20
2019-03-31T04:14:08.172Z,49.30
2019-03-31T04:16:38.563Z,49.30
2019-03-31T04:19:09.704Z,49.30
2019-03-31T04:21:40.077Z,49.30
2019-03-31T04:24:10.419Z,49.40
2019-03-31T04:26:41.437Z,49.20
2019-03-31T04:29:11.796Z,49.20
2019-03-31T04:31:42.177Z,49.30
2019-03-31T04:34:12.544Z,49.20
2019-03-31T04:36:43.829Z,49.20
2019-03-31T04:39:14.165Z,49.20
2019-03-31T04:41:44.910Z,49.20
2019-03-31T04:44:15.254Z,49.30
2019-03-31T04:46:45.644Z,49.30
2019-03-31T04:49:16.032Z,49.40
2019-03-31T04:51:46.433Z,49.50
2019-03-31T04:54:16.820Z,49.50
2019-03-31T04:56:47.165Z,49.50
2019-03-31T04:59:17.563Z,49.50
2019-03-31T05:01:47.904Z,49.50
2019-03-31T05:04:18.707Z,49.50
2019-03-31T05:06:49.390Z,49.60
2019-03-31T05:09:20.445Z,49.50
2019-03-31T05:11:50.816Z,49.50
2019-03-31T05:14:21.690Z,49.50
2019-03-31T05:16:52.074Z,49.50
2019-03-31T05:19:23.031Z,49.50
2019-03-31T05:21:53.368Z,49.50
2019-03-31T05:24:23.748Z,49.70
2019-03-31T05:26:54.069Z,49.70
2019-03-31T05:29:24.470Z,49.80
2019-03-31T05:31:55.275Z,49.90
2019-03-31T05:34:25.656Z,49.90
2019-03-31T05:36:56.546Z,50.00
2019-03-31T05:39:26.917Z,50.00
2019-03-31T05:41:57.249Z,50.00
2019-03-31T05:44:28.075Z,50.00
2019-03-31T05:46:58.419Z,50.10
2019-03-31T05:49:28.793Z,50.10
2019-03-31T05:52:00.234Z,50.20
2019-03-31T05:54:31.017Z,50.30
2019-03-31T05:57:01.998Z,51.10
2019-03-31T05:59:32.413Z,50.60
2019-03-31T06:02:03.155Z,50.60
2019-03-31T06:04:33.932Z,50.60
2019-03-31T06:07:04.851Z,50.70
2019-03-31T06:09:35.744Z,50.70
2019-03-31T06:12:06.070Z,50.80
2019-03-31T06:14:37.000Z,50.70
2019-03-31T06:17:07.781Z,51.30
2019-03-31T06:19:38.515Z,50.70
2019-03-31T06:22:10.387Z,50.70
2019-03-31T06:24:41.148Z,50.80
2019-03-31T06:27:11.494Z,50.80
2019-03-31T06:29:42.727Z,50.80
2019-03-31T06:32:13.486Z,50.80
2019-03-31T06:34:47.805Z,50.80
2019-03-31T06:37:16.294Z,50.80
2019-03-31T06:39:47.506Z,50.80
2019-03-31T06:42:17.849Z,50.90
2019-03-31T06:44:48.654Z,50.90
2019-03-31T06:47:18.992Z,50.90
2019-03-31T06:49:49.904Z,51.10
2019-03-31T06:52:20.266Z,51.10
2019-03-31T06:54:50.659Z,51.10
2019-03-31T06:57:21.045Z,51.20
2019-03-31T06:59:51.487Z,51.30
2019-03-31T07:02:22.338Z,51.20
2019-03-31T07:05:00.976Z,51.30
2019-03-31T07:07:26.046Z,51.30
2019-03-31T07:09:57.531Z,51.50
2019-03-31T07:12:28.498Z,51.50
2019-03-31T07:14:58.874Z,51.60
2019-03-31T07:17:29.752Z,51.50
2019-03-31T07:20:00.416Z,51.60
2019-03-31T07:22:30.815Z,51.70
2019-03-31T07:25:02.599Z,51.60
2019-03-31T07:27:32.904Z,51.70
2019-03-31T07:30:07.184Z,51.70
2019-03-31T07:32:37.395Z,51.70
2019-03-31T07:35:18.432Z,51.80
2019-03-31T07:37:47.025Z,51.80
2019-03-31T07:40:13.793Z,51.90
2019-03-31T07:42:45.585Z,51.90
2019-03-31T07:45:17.374Z,51.90
2019-03-31T07:47:47.710Z,52.10
2019-03-31T07:50:18.130Z,52.00
2019-03-31T07:52:48.992Z,52.10
2019-03-31T07:55:20.929Z,52.40
2019-03-31T07:57:54.390Z,52.40
2019-03-31T08:00:23.750Z,52.60
2019-03-31T08:02:55.055Z,52.80
2019-03-31T08:05:32.839Z,53.10
2019-03-31T08:07:57.817Z,53.10
2019-03-31T08:10:28.621Z,52.80
2019-03-31T08:12:59.430Z,52.60
2019-03-31T08:15:30.363Z,52.50
2019-03-31T08:18:01.112Z,52.50
2019-03-31T08:20:31.478Z,52.40
2019-03-31T08:23:02.646Z,52.40
2019-03-31T08:25:33.465Z,52.20
2019-03-31T08:28:03.784Z,52.20
2019-03-31T08:30:34.167Z,52.20
2019-03-31T08:33:04.883Z,52.20
2019-03-31T08:35:46.562Z,52.20
2019-03-31T08:38:07.290Z,52.20
2019-03-31T08:40:38.470Z,52.20
2019-03-31T08:43:09.170Z,52.70
2019-03-31T08:45:39.557Z,52.30
2019-03-31T08:48:09.869Z,52.30
2019-03-31T08:50:40.806Z,52.20
2019-03-31T08:53:11.646Z,52.20
2019-03-31T08:55:42.008Z,52.10
2019-03-31T08:58:13.403Z,52.00
2019-03-31T09:00:48.711Z,52.00
2019-03-31T09:03:19.078Z,52.00
2019-03-31T09:06:01.054Z,51.90
2019-03-31T09:08:22.557Z,51.90
2019-03-31T09:10:52.934Z,52.50
2019-03-31T09:13:23.869Z,51.80
2019-03-31T09:15:54.820Z,51.80
2019-03-31T09:18:25.164Z,51.70
2019-03-31T09:20:56.065Z,51.70
2019-03-31T09:23:26.846Z,51.70
2019-03-31T09:25:57.239Z,51.60
2019-03-31T09:28:27.956Z,51.70
2019-03-31T09:30:59.146Z,51.60
2019-03-31T09:33:29.991Z,51.60
2019-03-31T09:36:00.326Z,51.60
2019-03-31T09:38:31.046Z,51.60
2019-03-31T09:41:01.904Z,51.60
2019-03-31T09:43:33.188Z,51.50
2019-03-31T09:46:03.497Z,51.50
2019-03-31T09:48:34.671Z,51.40
2019-03-31T09:51:05.476Z,51.40
2019-03-31T09:53:35.819Z,51.40
2019-03-31T09:56:06.639Z,51.40
2019-03-31T09:58:37.007Z,51.40
2019-03-31T10:01:08.223Z,51.50
2019-03-31T10:03:39.266Z,51.40
2019-03-31T10:06:11.308Z,51.30
2019-03-31T10:08:42.251Z,51.30
2019-03-31T10:11:12.952Z,51.30
2019-03-31T10:13:44.966Z,51.20
2019-03-31T10:16:15.888Z,51.10
2019-03-31T10:18:46.242Z,51.80
2019-03-31T10:21:17.136Z,50.90
2019-03-31T10:23:47.908Z,50.90
2019-03-31T10:26:31.094Z,50.90
2019-03-31T10:28:50.768Z,50.80
2019-03-31T10:31:22.735Z,50.70
2019-03-31T10:33:53.907Z,50.60
2019-03-31T10:36:24.589Z,50.50
2019-03-31T10:38:55.493Z,50.50
2019-03-31T10:41:27.020Z,50.40
2019-03-31T10:43:57.913Z,50.40
2019-03-31T10:46:28.647Z,50.20
2019-03-31T10:48:59.450Z,50.20
2019-03-31T10:51:30.113Z,50.00
2019-03-31T10:54:00.478Z,50.00
2019-03-31T10:56:31.322Z,49.80
2019-03-31T10:59:02.224Z,49.70
2019-03-31T11:01:33.715Z,49.50
2019-03-31T11:04:04.510Z,49.50
2019-03-31T11:06:35.242Z,49.30
2019-03-31T11:09:06.803Z,49.20
2019-03-31T11:11:38.110Z,49.20
2019-03-31T11:14:08.470Z,48.90
2019-03-31T11:16:39.263Z,48.90
2019-03-31T11:19:09.696Z,48.70
2019-03-31T11:22:11.113Z,48.50
2019-03-31T11:24:41.527Z,48.50
2019-03-31T11:27:11.855Z,48.40
2019-03-31T11:29:42.748Z,48.40
2019-03-31T11:32:13.113Z,48.40
2019-03-31T11:34:43.837Z,48.30
2019-03-31T11:37:14.714Z,48.10
2019-03-31T11:39:45.696Z,48.20
2019-03-31T11:42:16.065Z,48.10
2019-03-31T11:44:46.862Z,48.10
2019-03-31T11:47:17.592Z,47.80
2019-03-31T11:49:47.976Z,47.60
2019-03-31T11:52:18.890Z,47.50
2019-03-31T11:54:49.211Z,47.30
2019-03-31T11:57:20.176Z,46.80
2019-03-31T11:59:51.224Z,46.40
2019-03-31T12:02:27.199Z,46.20
2019-03-31T12:04:55.273Z,46.20
2019-03-31T12:07:28.266Z,46.30
2019-03-31T12:09:58.175Z,46.10
2019-03-31T12:12:29.156Z,46.20
2019-03-31T12:15:00.977Z,46.10
2019-03-31T12:17:32.342Z,46.10
2019-03-31T12:20:03.764Z,46.00
2019-03-31T12:22:34.150Z,45.90
2019-03-31T12:25:05.862Z,45.00
2019-03-31T12:27:37.052Z,45.00
2019-03-31T12:30:07.861Z,45.00
2019-03-31T12:32:38.901Z,44.70
2019-03-31T12:35:10.369Z,44.50
2019-03-31T12:37:43.285Z,44.10
2019-03-31T12:40:18.782Z,44.30
2019-03-31T12:42:49.549Z,43.50
2019-03-31T12:45:19.939Z,43.60
2019-03-31T12:47:50.697Z,43.30
2019-03-31T12:50:21.638Z,42.60
2019-03-31T12:52:52.980Z,42.80
2019-03-31T12:55:24.282Z,42.60
2019-03-31T12:57:55.013Z,42.70
2019-03-31T13:00:25.497Z,41.90
2019-03-31T13:02:56.219Z,41.60
2019-03-31T13:05:26.602Z,41.20
2019-03-31T13:07:57.098Z,41.30
2019-03-31T13:10:28.479Z,41.20
2019-03-31T13:12:59.485Z,41.20
2019-03-31T13:15:31.033Z,41.00
2019-03-31T13:18:02.278Z,40.90
2019-03-31T13:20:33.308Z,40.60
2019-03-31T13:23:04.672Z,40.40
2019-03-31T13:25:35.076Z,39.30
2019-03-31T13:28:06.042Z,39.50
2019-03-31T13:30:37.023Z,39.20
2019-03-31T13:33:07.403Z,39.10
2019-03-31T13:35:37.768Z,38.90
2019-03-31T13:38:11.353Z,38.70
2019-03-31T13:40:41.022Z,38.30
2019-03-31T13:43:11.922Z,38.50
2019-03-31T13:45:42.330Z,37.70
2019-03-31T13:48:13.337Z,37.30
2019-03-31T13:50:43.790Z,37.20
2019-03-31T13:53:16.267Z,36.90
2019-03-31T13:55:47.140Z,36.80
2019-03-31T13:58:19.356Z,36.60
2019-03-31T14:00:50.863Z,36.80
2019-03-31T14:03:22.221Z,36.90
2019-03-31T14:05:53.201Z,37.10
2019-03-31T14:08:25.994Z,36.70
2019-03-31T14:10:55.567Z,36.50
2019-03-31T14:13:26.443Z,36.60
2019-03-31T14:15:57.275Z,36.90
2019-03-31T14:18:27.962Z,37.70
2019-03-31T14:20:58.818Z,37.10
2019-03-31T14:23:29.145Z,37.00
2019-03-31T14:25:59.453Z,36.80
2019-03-31T14:28:30.345Z,37.00
2019-03-31T14:31:01.800Z,36.80
2019-03-31T14:33:32.798Z,36.50
2019-03-31T14:36:04.143Z,36.40
2019-03-31T14:38:40.402Z,36.50
2019-03-31T14:41:07.014Z,36.00
2019-03-31T14:43:37.345Z,35.60
2019-03-31T14:46:08.147Z,35.50
2019-03-31T14:48:39.429Z,35.40
2019-03-31T14:51:10.159Z,35.60
2019-03-31T14:53:40.456Z,34.60
2019-03-31T14:56:11.414Z,34.40
2019-03-31T14:58:41.725Z,34.30
2019-03-31T15:01:12.127Z,33.90
2019-03-31T15:03:43.079Z,33.90
2019-03-31T15:06:13.944Z,33.60
2019-03-31T15:08:54.365Z,33.60
2019-03-31T15:11:17.217Z,33.50
2019-03-31T15:13:47.562Z,33.30
2019-03-31T15:16:18.674Z,32.80
2019-03-31T15:18:48.997Z,32.70
2019-03-31T15:21:20.305Z,32.50
2019-03-31T15:23:51.296Z,32.30
2019-03-31T15:26:22.143Z,32.30
2019-03-31T15:28:52.375Z,32.10
2019-03-31T15:31:23.765Z,31.90
2019-03-31T15:33:55.076Z,32.00
2019-03-31T15:36:25.492Z,31.90
2019-03-31T15:39:08.100Z,31.50
2019-03-31T15:41:28.342Z,31.40
2019-03-31T15:43:58.655Z,31.30
2019-03-31T15:46:29.058Z,30.70
2019-03-31T15:48:59.701Z,30.60
2019-03-31T15:51:30.503Z,30.20
2019-03-31T15:54:01.199Z,30.30
2019-03-31T15:56:32.074Z,30.30
2019-03-31T15:59:03.231Z,30.10
2019-03-31T16:01:34.728Z,30.10
2019-03-31T16:04:05.556Z,30.10
2019-03-31T16:06:36.298Z,30.00
2019-03-31T16:09:22.322Z,29.90
2019-03-31T16:11:52.853Z,30.00
2019-03-31T16:14:12.027Z,30.00
2019-03-31T16:16:42.817Z,29.90
2019-03-31T16:19:13.110Z,29.70
2019-03-31T16:21:44.333Z,29.70
2019-03-31T16:24:14.674Z,29.60
2019-03-31T16:26:44.840Z,29.60
2019-03-31T16:29:15.021Z,29.60
2019-03-31T16:31:46.126Z,29.50
2019-03-31T16:34:16.282Z,29.40
2019-03-31T16:36:46.623Z,29.50
2019-03-31T16:39:17.229Z,29.40
2019-03-31T16:41:47.390Z,29.50
2019-03-31T16:44:17.689Z,29.60
2019-03-31T16:46:47.540Z,29.60
2019-03-31T16:49:20.378Z,29.60
2019-03-31T16:51:50.656Z,29.70
2019-03-31T16:54:20.966Z,29.70
2019-03-31T16:56:50.792Z,29.70
2019-03-31T16:59:21.082Z,29.80
2019-03-31T17:01:50.899Z,30.50
2019-03-31T17:04:21.256Z,30.00
2019-03-31T17:06:51.153Z,30.10
2019-03-31T17:09:23.017Z,30.30
2019-03-31T17:11:52.874Z,30.40
2019-03-31T17:14:22.744Z,30.70
2019-03-31T17:16:52.991Z,30.80
2019-03-31T17:19:22.878Z,31.10
2019-03-31T17:21:52.742Z,31.30
2019-03-31T17:24:22.537Z,31.70
2019-03-31T17:26:52.395Z,31.90
2019-03-31T17:29:22.183Z,32.00
2019-03-31T17:31:52.820Z,32.20
2019-03-31T17:34:22.934Z,32.40
2019-03-31T17:36:53.657Z,32.70
2019-03-31T17:39:24.781Z,32.90
2019-03-31T17:41:55.622Z,33.20
2019-03-31T17:44:26.228Z,33.50
2019-03-31T17:46:57.178Z,33.60
2019-03-31T17:49:27.602Z,33.80
2019-03-31T17:52:01.108Z,34.00
2019-03-31T17:54:29.795Z,34.20
2019-03-31T17:57:00.228Z,34.30
2019-03-31T17:59:30.024Z,34.50
2019-03-31T18:01:59.898Z,34.70
2019-03-31T18:04:30.159Z,34.90
2019-03-31T18:07:01.200Z,35.20
2019-03-31T18:09:31.407Z,35.40
2019-03-31T18:12:01.729Z,35.40
2019-03-31T18:14:32.137Z,35.60
2019-03-31T18:17:03.087Z,35.80
2019-03-31T18:19:33.453Z,36.30
2019-03-31T18:22:15.860Z,36.10
2019-03-31T18:24:35.661Z,36.30
2019-03-31T18:27:05.510Z,36.40
2019-03-31T18:29:35.799Z,36.70
2019-03-31T18:32:06.175Z,36.80
2019-03-31T18:34:36.547Z,36.90
2019-03-31T18:37:06.596Z,37.10
2019-03-31T18:39:36.999Z,37.30
2019-03-31T18:42:06.926Z,37.30
2019-03-31T18:44:37.266Z,37.50
2019-03-31T18:47:08.103Z,37.70
2019-03-31T18:49:38.313Z,37.70
2019-03-31T18:52:08.653Z,37.90
2019-03-31T18:54:51.038Z,38.00
2019-03-31T18:57:36.588Z,38.20
2019-03-31T19:00:34.669Z,38.30
2019-03-31T19:03:32.721Z,38.50
2019-03-31T19:06:22.465Z,38.50
2019-03-31T19:09:03.787Z,38.70
2019-03-31T19:11:53.532Z,38.90
2019-03-31T19:14:32.653Z,39.00
2019-03-31T19:17:14.978Z,39.10
2019-03-31T19:19:59.763Z,39.30
2019-03-31T19:22:47.563Z,39.40
2019-03-31T19:25:34.864Z,39.50
2019-03-31T19:28:24.056Z,39.60
2019-03-31T19:31:25.023Z,39.70
2019-03-31T19:34:13.682Z,39.90
2019-03-31T19:37:08.733Z,39.90
2019-03-31T19:40:01.186Z,40.00
2019-03-31T19:42:38.384Z,40.10
2019-03-31T19:45:33.845Z,40.30
2019-03-31T19:48:25.307Z,40.40
2019-03-31T19:51:13.104Z,40.40
2019-03-31T19:54:14.109Z,40.40
2019-03-31T19:57:11.910Z,40.60
2019-03-31T19:59:59.939Z,40.70
2019-03-31T20:03:07.027Z,40.80
2019-03-31T20:05:53.480Z,40.90
2019-03-31T20:08:54.712Z,40.90
2019-03-31T20:11:46.802Z,41.60
2019-03-31T20:14:35.544Z,40.90
2019-03-31T20:17:21.329Z,41.10
2019-03-31T20:20:03.642Z,41.30
2019-03-31T20:22:55.917Z,41.40
2019-03-31T20:25:44.622Z,41.40
2019-03-31T20:28:52.307Z,41.40
2019-03-31T20:31:32.313Z,41.60
2019-03-31T20:34:27.020Z,41.60
2019-03-31T20:37:17.116Z,41.80
2019-03-31T20:40:05.792Z,41.90
2019-03-31T20:43:09.762Z,41.90
2019-03-31T20:45:40.078Z,42.00
2019-03-31T20:48:10.505Z,42.10
2019-03-31T20:50:40.722Z,42.20
2019-03-31T20:53:10.603Z,42.30
2019-03-31T20:55:40.509Z,42.40
2019-03-31T20:58:10.728Z,42.40
2019-03-31T21:00:40.561Z,42.60
2019-03-31T21:03:10.956Z,42.60
2019-03-31T21:05:41.457Z,42.70
2019-03-31T21:08:12.432Z,42.70
2019-03-31T21:10:42.560Z,42.90
2019-03-31T21:13:12.405Z,42.90
2019-03-31T21:15:46.018Z,42.90
2019-03-31T21:18:17.548Z,42.90
2019-03-31T21:20:47.943Z,42.90
2019-03-31T21:23:19.870Z,42.90
2019-03-31T21:25:50.360Z,43.00
2019-03-31T21:28:20.742Z,43.00
2019-03-31T21:30:50.542Z,43.20
2019-03-31T21:33:21.423Z,43.20
2019-03-31T21:35:51.689Z,43.30
2019-03-31T21:38:21.568Z,43.40
2019-03-31T21:40:51.397Z,43.40
2019-03-31T21:43:21.692Z,43.60
2019-03-31T21:45:51.956Z,43.60
2019-03-31T21:48:21.800Z,43.70
2019-03-31T21:50:52.616Z,43.70
2019-03-31T21:53:22.495Z,43.90
2019-03-31T21:55:52.308Z,43.90
2019-03-31T21:58:22.770Z,44.00
2019-03-31T22:00:55.130Z,44.00
2019-03-31T22:03:25.560Z,44.10
2019-03-31T22:05:55.411Z,44.10
2019-03-31T22:08:25.660Z,44.30
2019-03-31T22:10:56.045Z,44.40
2019-03-31T22:13:25.914Z,44.40
2019-03-31T22:15:56.619Z,44.60
2019-03-31T22:18:26.478Z,44.60
2019-03-31T22:20:56.299Z,44.70
2019-03-31T22:23:26.110Z,44.90
2019-03-31T22:25:56.404Z,44.90
2019-03-31T22:28:26.208Z,44.90
2019-03-31T22:30:56.080Z,45.00
2019-03-31T22:33:26.524Z,45.10
2019-03-31T22:36:14.118Z,45.20
2019-03-31T22:38:44.406Z,45.30
2019-03-31T22:41:14.632Z,45.30
2019-03-31T22:43:44.952Z,45.40
2019-03-31T22:46:14.753Z,45.50
2019-03-31T22:48:44.664Z,45.60
2019-03-31T22:51:15.489Z,45.70
2019-03-31T22:53:45.417Z,45.90
2019-03-31T22:56:15.251Z,45.90
2019-03-31T22:58:45.062Z,46.00
2019-03-31T23:01:15.442Z,46.00
2019-03-31T23:03:45.807Z,46.00
2019-03-31T23:06:15.663Z,46.10
2019-03-31T23:08:46.032Z,46.20
2019-03-31T23:11:16.389Z,46.20
2019-03-31T23:13:46.579Z,46.20
2019-03-31T23:16:16.440Z,46.30
2019-03-31T23:18:46.267Z,46.00
2019-03-31T23:21:17.071Z,46.40
2019-03-31T23:23:47.473Z,46.40
2019-03-31T23:26:17.337Z,46.40
2019-03-31T23:28:47.482Z,47.20
2019-03-31T23:31:18.196Z,46.50
2019-03-31T23:33:48.016Z,46.70
2019-03-31T23:36:18.407Z,46.70
2019-03-31T23:38:48.273Z,46.70
2019-03-31T23:41:18.556Z,46.80
2019-03-31T23:43:48.856Z,46.90
2019-03-31T23:46:18.730Z,47.00
2019-03-31T23:48:48.540Z,47.10
2019-03-31T23:51:18.933Z,47.00
2019-03-31T23:53:48.763Z,47.00
2019-03-31T23:56:18.634Z,47.10
2019-03-31T23:58:48.419Z,47.20
